createdAt,value
2023-02-23T00:01:55.704Z,10.10
2023-02-23T00:04:23.539Z,10.00
2023-02-23T00:06:52.168Z,10.00
2023-02-23T00:09:25.000Z,10.00
2023-02-23T00:11:56.286Z,10.00
2023-02-23T00:14:31.027Z,9.90
2023-02-23T00:16:59.775Z,10.00
2023-02-23T00:19:26.554Z,10.00
2023-02-23T00:21:54.050Z,9.90
2023-02-23T00:24:20.844Z,9.90
2023-02-23T00:26:48.426Z,9.90
2023-02-23T00:29:25.632Z,9.90
2023-02-23T00:31:52.772Z,9.90
2023-02-23T00:34:21.016Z,9.90
2023-02-23T00:36:51.301Z,10.00
2023-02-23T00:39:20.939Z,10.00
2023-02-23T00:41:48.938Z,9.90
2023-02-23T00:44:16.013Z,9.90
2023-02-23T00:46:43.612Z,9.90
2023-02-23T00:49:12.622Z,9.90
2023-02-23T00:51:39.634Z,9.90
2023-02-23T00:54:06.884Z,9.90
2023-02-23T00:56:33.883Z,9.90
2023-02-23T00:59:00.509Z,9.90
2023-02-23T01:01:27.786Z,9.90
2023-02-23T01:03:54.448Z,10.00
2023-02-23T01:06:21.908Z,10.00
2023-02-23T01:08:50.951Z,10.00
2023-02-23T01:11:22.516Z,9.90
2023-02-23T01:13:51.721Z,9.90
2023-02-23T01:16:21.969Z,9.90
2023-02-23T01:18:48.971Z,9.80
2023-02-23T01:21:15.667Z,9.90
2023-02-23T01:23:42.326Z,9.90
2023-02-23T01:26:17.002Z,9.80
2023-02-23T01:28:43.629Z,9.80
2023-02-23T01:31:10.387Z,9.80
2023-02-23T01:33:37.156Z,9.80
2023-02-23T01:36:03.926Z,9.80
2023-02-23T01:38:30.483Z,9.80
2023-02-23T01:40:57.054Z,9.80
2023-02-23T01:43:26.105Z,9.80
2023-02-23T01:45:58.052Z,9.70
2023-02-23T01:48:35.514Z,9.80
2023-02-23T01:51:04.244Z,9.80
2023-02-23T01:53:34.605Z,9.80
2023-02-23T01:56:11.149Z,9.70
2023-02-23T01:58:40.754Z,9.70
2023-02-23T02:01:07.568Z,9.70
2023-02-23T02:03:41.746Z,9.70
2023-02-23T02:06:14.091Z,9.70
2023-02-23T02:08:46.329Z,9.80
2023-02-23T02:11:33.578Z,9.80
2023-02-23T02:14:08.943Z,9.70
2023-02-23T02:17:02.407Z,9.80
2023-02-23T02:19:46.041Z,9.80
2023-02-23T02:22:15.390Z,9.70
2023-02-23T02:24:44.831Z,9.70
2023-02-23T02:27:30.297Z,9.70
2023-02-23T02:30:22.878Z,9.80
2023-02-23T02:33:22.338Z,9.70
2023-02-23T02:36:23.239Z,9.70
2023-02-23T02:39:23.718Z,9.70
2023-02-23T02:42:07.974Z,9.70
2023-02-23T02:44:57.991Z,9.60
2023-02-23T02:47:50.343Z,9.70
2023-02-23T02:50:36.892Z,9.70
2023-02-23T02:53:08.438Z,9.60
2023-02-23T02:55:39.523Z,9.70
2023-02-23T02:58:08.048Z,9.70
2023-02-23T03:01:01.043Z,9.70
2023-02-23T03:03:55.570Z,9.60
2023-02-23T03:06:57.065Z,9.60
2023-02-23T03:10:26.797Z,9.60
2023-02-23T03:13:26.179Z,9.60
2023-02-23T03:16:34.266Z,9.60
2023-02-23T03:19:33.948Z,9.60
2023-02-23T03:22:28.546Z,9.50
2023-02-23T03:25:22.536Z,9.50
2023-02-23T03:28:37.710Z,9.50
2023-02-23T03:31:33.367Z,9.50
2023-02-23T03:34:26.663Z,9.60
2023-02-23T03:37:24.151Z,9.60
2023-02-23T03:40:36.969Z,9.50
2023-02-23T03:43:27.894Z,9.60
2023-02-23T03:46:15.923Z,9.60
2023-02-23T03:49:04.245Z,9.50
2023-02-23T03:51:53.267Z,9.50
2023-02-23T03:54:53.922Z,9.50
2023-02-23T03:57:41.257Z,9.50
2023-02-23T04:00:35.078Z,9.50
2023-02-23T04:03:24.720Z,9.50
2023-02-23T04:06:13.254Z,9.40
2023-02-23T04:08:59.087Z,9.40
2023-02-23T04:12:07.218Z,9.50
2023-02-23T04:15:04.424Z,9.50
2023-02-23T04:17:31.145Z,9.50
2023-02-23T04:19:57.726Z,9.50
2023-02-23T04:22:25.099Z,9.40
2023-02-23T04:24:51.813Z,9.40
2023-02-23T04:27:19.140Z,9.40
2023-02-23T04:29:45.872Z,9.50
2023-02-23T04:32:18.342Z,9.50
2023-02-23T04:34:45.153Z,9.50
2023-02-23T04:37:12.941Z,9.40
2023-02-23T04:39:39.762Z,9.40
2023-02-23T04:42:06.401Z,9.40
2023-02-23T04:44:32.967Z,9.40
2023-02-23T04:46:59.575Z,9.50
2023-02-23T04:49:26.146Z,9.40
2023-02-23T04:51:52.744Z,9.40
2023-02-23T04:54:31.871Z,9.50
2023-02-23T04:56:58.455Z,9.50
2023-02-23T04:59:25.069Z,9.40
2023-02-23T05:01:51.644Z,9.50
2023-02-23T05:04:18.373Z,9.40
2023-02-23T05:06:44.976Z,9.40
2023-02-23T05:09:11.552Z,9.40
2023-02-23T05:11:38.172Z,9.30
2023-02-23T05:14:04.869Z,9.30
2023-02-23T05:16:32.007Z,9.30
2023-02-23T05:18:58.967Z,9.30
2023-02-23T05:21:25.641Z,9.40
2023-02-23T05:23:52.230Z,9.30
2023-02-23T05:26:18.969Z,9.30
2023-02-23T05:28:45.557Z,9.30
2023-02-23T05:31:12.396Z,9.40
2023-02-23T05:33:48.043Z,9.20
2023-02-23T05:36:17.412Z,9.30
2023-02-23T05:38:45.812Z,9.30
2023-02-23T05:41:18.477Z,9.30
2023-02-23T05:43:45.369Z,9.30
2023-02-23T05:46:16.716Z,9.30
2023-02-23T05:48:43.576Z,9.20
2023-02-23T05:51:16.141Z,9.20
2023-02-23T05:53:43.567Z,9.20
2023-02-23T05:56:14.185Z,9.20
2023-02-23T05:58:40.787Z,9.30
2023-02-23T06:01:07.354Z,9.30
2023-02-23T06:03:34.419Z,9.30
2023-02-23T06:06:01.180Z,9.30
2023-02-23T06:08:27.875Z,9.30
2023-02-23T06:10:54.557Z,9.20
2023-02-23T06:13:21.659Z,9.20
2023-02-23T06:15:49.444Z,9.20
2023-02-23T06:18:17.519Z,9.10
2023-02-23T06:20:45.725Z,9.10
2023-02-23T06:23:12.770Z,9.00
2023-02-23T06:25:40.397Z,9.00
2023-02-23T06:28:08.463Z,9.00
2023-02-23T06:30:35.521Z,9.00
2023-02-23T06:33:02.413Z,9.00
2023-02-23T06:35:29.040Z,9.00
2023-02-23T06:37:55.690Z,9.00
2023-02-23T06:40:22.431Z,8.90
2023-02-23T06:42:49.049Z,8.90
2023-02-23T06:45:15.671Z,8.80
2023-02-23T06:47:42.294Z,8.80
2023-02-23T06:50:09.902Z,8.80
2023-02-23T06:52:39.523Z,8.80
2023-02-23T06:55:07.149Z,8.80
2023-02-23T06:57:34.123Z,8.80
2023-02-23T07:00:01.714Z,8.80
2023-02-23T07:02:28.430Z,8.70
2023-02-23T07:04:55.022Z,8.70
2023-02-23T07:07:22.122Z,8.60
2023-02-23T07:09:48.700Z,8.60
2023-02-23T07:12:15.294Z,8.60
2023-02-23T07:14:41.882Z,8.60
2023-02-23T07:17:10.015Z,8.60
2023-02-23T07:19:38.201Z,8.60
2023-02-23T07:22:05.824Z,8.60
2023-02-23T07:24:32.470Z,8.60
2023-02-23T07:26:59.137Z,8.60
2023-02-23T07:29:27.631Z,8.70
2023-02-23T07:31:54.620Z,8.70
2023-02-23T07:34:21.650Z,8.70
2023-02-23T07:36:48.379Z,8.70
2023-02-23T07:39:15.057Z,8.70
2023-02-23T07:41:41.791Z,8.70
2023-02-23T07:44:08.460Z,8.70
2023-02-23T07:46:35.089Z,8.80
2023-02-23T07:49:02.996Z,8.70
2023-02-23T07:51:29.643Z,8.80
2023-02-23T07:53:56.434Z,8.80
2023-02-23T07:56:23.237Z,8.80
2023-02-23T07:58:49.812Z,8.80
2023-02-23T08:01:16.643Z,8.80
2023-02-23T08:03:49.356Z,8.80
2023-02-23T08:06:17.725Z,8.80
2023-02-23T08:08:44.685Z,8.80
2023-02-23T08:11:12.061Z,8.90
2023-02-23T08:13:39.079Z,8.90
2023-02-23T08:16:05.905Z,8.90
2023-02-23T08:18:32.650Z,9.00
2023-02-23T08:21:03.678Z,8.90
2023-02-23T08:23:32.018Z,8.90
2023-02-23T08:25:59.667Z,8.90
2023-02-23T08:28:27.421Z,8.90
2023-02-23T08:30:54.699Z,8.90
2023-02-23T08:33:21.660Z,8.90
2023-02-23T08:35:48.589Z,8.80
2023-02-23T08:38:16.377Z,8.80
2023-02-23T08:40:43.236Z,8.80
2023-02-23T08:43:10.001Z,8.80
2023-02-23T08:45:38.598Z,8.90
2023-02-23T08:48:06.539Z,8.80
2023-02-23T08:50:33.352Z,8.90
2023-02-23T08:53:00.024Z,8.80
2023-02-23T08:55:26.759Z,8.80
2023-02-23T08:57:53.516Z,8.90
2023-02-23T09:00:20.658Z,8.90
2023-02-23T09:02:48.139Z,8.90
2023-02-23T09:05:15.358Z,8.90
2023-02-23T09:07:47.217Z,9.00
2023-02-23T09:10:19.764Z,8.90
2023-02-23T09:12:46.370Z,8.90
2023-02-23T09:15:13.016Z,8.90
2023-02-23T09:17:41.300Z,8.90
2023-02-23T09:20:09.315Z,8.90
2023-02-23T09:22:36.992Z,8.90
2023-02-23T09:25:04.905Z,8.90
2023-02-23T09:27:31.602Z,8.90
2023-02-23T09:29:58.262Z,8.90
2023-02-23T09:32:24.900Z,8.80
2023-02-23T09:34:52.457Z,8.90
2023-02-23T09:37:19.100Z,8.90
2023-02-23T09:39:45.798Z,9.00
2023-02-23T09:42:23.092Z,8.90
2023-02-23T09:45:14.429Z,8.90
2023-02-23T09:47:59.432Z,9.00
2023-02-23T09:50:30.267Z,8.90
2023-02-23T09:53:03.788Z,9.00
2023-02-23T09:55:31.651Z,9.00
2023-02-23T09:58:08.242Z,9.00
2023-02-23T10:00:44.741Z,9.00
2023-02-23T10:03:26.330Z,9.10
2023-02-23T10:05:59.469Z,9.10
2023-02-23T10:08:41.114Z,9.10
2023-02-23T10:11:36.909Z,9.10
2023-02-23T10:14:16.334Z,9.20
2023-02-23T10:16:58.721Z,9.10
2023-02-23T10:19:37.095Z,9.00
2023-02-23T10:22:07.252Z,8.90
2023-02-23T10:24:42.283Z,8.90
2023-02-23T10:27:20.830Z,8.90
2023-02-23T10:29:51.418Z,8.90
2023-02-23T10:32:40.615Z,9.00
2023-02-23T10:35:29.260Z,9.00
2023-02-23T10:37:57.102Z,9.00
2023-02-23T10:40:28.041Z,8.90
2023-02-23T10:42:57.380Z,8.90
2023-02-23T10:45:26.674Z,8.90
2023-02-23T10:48:03.803Z,8.90
2023-02-23T10:50:31.118Z,8.90
2023-02-23T10:53:16.537Z,8.90
2023-02-23T10:55:46.123Z,8.80
2023-02-23T10:58:20.207Z,8.70
2023-02-23T11:01:01.204Z,8.80
2023-02-23T11:03:33.825Z,8.80
2023-02-23T11:06:01.036Z,8.80
2023-02-23T11:08:36.315Z,8.70
2023-02-23T11:11:14.871Z,8.60
2023-02-23T11:13:47.497Z,8.60
2023-02-23T11:16:20.053Z,8.70
2023-02-23T11:19:01.815Z,8.80
2023-02-23T11:21:38.760Z,8.80
2023-02-23T11:24:18.122Z,9.00
2023-02-23T11:26:47.358Z,9.00
2023-02-23T11:29:26.147Z,9.00
2023-02-23T11:31:56.147Z,9.10
2023-02-23T11:34:31.984Z,9.20
2023-02-23T11:37:05.866Z,9.20
2023-02-23T11:39:33.088Z,9.30
2023-02-23T11:42:25.222Z,9.30
2023-02-23T11:45:03.772Z,9.20
2023-02-23T11:47:33.375Z,9.20
2023-02-23T11:50:00.842Z,9.20
2023-02-23T11:52:28.246Z,9.20
2023-02-23T11:54:58.943Z,9.20
2023-02-23T12:05:51.743Z,9.30
2023-02-23T12:08:39.659Z,9.30
2023-02-23T12:11:22.363Z,9.50
2023-02-23T12:14:26.354Z,9.60
2023-02-23T12:16:59.992Z,9.50
2023-02-23T12:19:50.465Z,9.50
2023-02-23T12:22:26.773Z,9.50
2023-02-23T12:25:04.889Z,9.50
2023-02-23T12:33:02.104Z,9.50
2023-02-23T12:35:46.342Z,9.50
2023-02-23T12:38:33.181Z,9.50
2023-02-23T12:41:21.487Z,9.60
2023-02-23T12:43:57.502Z,9.70
2023-02-23T12:46:47.282Z,9.70
2023-02-23T12:49:29.928Z,9.90
2023-02-23T12:52:08.456Z,10.00
2023-02-23T12:54:36.297Z,9.90
2023-02-23T12:57:23.657Z,9.80
2023-02-23T13:00:30.353Z,9.70
2023-02-23T13:03:24.186Z,9.60
2023-02-23T13:05:53.748Z,9.50
2023-02-23T13:08:52.211Z,9.50
2023-02-23T13:11:34.456Z,9.50
2023-02-23T13:14:14.612Z,9.50
2023-02-23T13:16:53.314Z,9.40
2023-02-23T13:19:46.584Z,9.40
2023-02-23T13:22:33.343Z,9.40
2023-02-23T13:25:05.106Z,9.40
2023-02-23T13:27:39.029Z,9.30
2023-02-23T13:30:10.062Z,9.30
2023-02-23T13:32:38.657Z,9.40
2023-02-23T13:35:12.906Z,9.40
2023-02-23T13:37:50.199Z,9.40
2023-02-23T13:40:42.027Z,9.40
2023-02-23T13:43:30.643Z,9.50
2023-02-23T13:46:04.231Z,9.50
2023-02-23T13:48:59.315Z,9.50
2023-02-23T13:51:51.681Z,9.50
2023-02-23T13:54:22.760Z,9.50
2023-02-23T13:57:01.585Z,9.60
2023-02-23T13:59:41.678Z,9.60
2023-02-23T14:02:34.688Z,9.60
2023-02-23T14:05:22.533Z,9.50
2023-02-23T14:07:53.681Z,9.60
2023-02-23T14:10:26.903Z,9.60
2023-02-23T14:13:15.624Z,9.60
2023-02-23T14:15:48.167Z,9.60
2023-02-23T14:18:20.837Z,9.60
2023-02-23T14:21:13.016Z,9.50
2023-02-23T14:23:50.699Z,9.50
2023-02-23T14:26:29.456Z,9.40
2023-02-23T14:29:25.406Z,9.50
2023-02-23T14:32:17.095Z,9.60
2023-02-23T14:35:02.207Z,9.70
2023-02-23T14:37:56.181Z,9.60
2023-02-23T14:40:32.904Z,9.60
2023-02-23T14:43:02.648Z,9.60
2023-02-23T14:45:37.844Z,9.50
2023-02-23T14:48:13.359Z,9.60
2023-02-23T14:50:41.260Z,9.60
2023-02-23T14:53:18.395Z,9.50
2023-02-23T14:55:45.522Z,9.50
2023-02-23T14:58:38.599Z,9.50
2023-02-23T15:01:05.357Z,9.50
2023-02-23T15:03:32.064Z,9.50
2023-02-23T15:06:01.827Z,9.50
2023-02-23T15:08:30.434Z,9.40
2023-02-23T15:11:05.823Z,9.40
2023-02-23T15:16:15.115Z,9.40
2023-02-23T15:18:43.560Z,9.40
2023-02-23T15:21:22.759Z,9.40
2023-02-23T15:23:52.898Z,9.40
2023-02-23T15:26:32.190Z,9.40
2023-02-23T15:29:13.365Z,9.50
2023-02-23T15:31:51.781Z,9.40
2023-02-23T15:34:21.847Z,9.50
2023-02-23T15:37:14.129Z,9.50
2023-02-23T15:39:53.247Z,9.50
2023-02-23T15:42:48.771Z,9.50
2023-02-23T15:45:33.616Z,9.50
2023-02-23T15:48:07.393Z,9.50
2023-02-23T15:50:40.473Z,9.40
2023-02-23T15:53:20.644Z,9.40
2023-02-23T15:55:48.385Z,9.40
2023-02-23T15:58:24.012Z,9.40
2023-02-23T16:00:59.562Z,9.40
2023-02-23T16:03:32.223Z,9.30
2023-02-23T16:06:05.495Z,9.30
2023-02-23T16:08:33.356Z,9.30
2023-02-23T16:11:15.049Z,9.40
2023-02-23T16:13:46.160Z,9.40
2023-02-23T16:16:20.382Z,9.40
2023-02-23T16:18:53.301Z,9.40
2023-02-23T16:21:25.341Z,9.30
2023-02-23T16:23:54.739Z,9.30
2023-02-23T16:26:33.989Z,9.30
2023-02-23T16:29:02.934Z,9.40
2023-02-23T16:31:58.072Z,9.40
2023-02-23T16:34:44.708Z,9.40
2023-02-23T16:37:22.974Z,9.40
2023-02-23T16:39:49.793Z,9.30
2023-02-23T16:42:34.016Z,9.40
2023-02-23T16:45:01.314Z,9.40
2023-02-23T16:47:40.411Z,9.40
2023-02-23T16:50:24.445Z,9.40
2023-02-23T16:52:53.105Z,9.40
2023-02-23T16:55:29.810Z,9.40
2023-02-23T16:57:59.685Z,9.40
2023-02-23T17:00:32.346Z,9.40
2023-02-23T17:03:00.486Z,9.40
2023-02-23T17:05:28.858Z,9.30
2023-02-23T17:07:57.454Z,9.30
2023-02-23T17:10:28.378Z,9.30
2023-02-23T17:13:03.002Z,9.20
2023-02-23T17:15:35.792Z,9.20
2023-02-23T17:18:03.172Z,9.20
2023-02-23T17:20:30.165Z,9.20
2023-02-23T17:22:59.287Z,9.20
2023-02-23T17:25:26.489Z,9.30
2023-02-23T17:27:53.996Z,9.30
2023-02-23T17:30:21.321Z,9.30
2023-02-23T17:32:49.535Z,9.20
2023-02-23T17:35:16.296Z,9.10
2023-02-23T17:37:43.140Z,9.20
2023-02-23T17:40:14.220Z,9.20
2023-02-23T17:42:41.107Z,9.20
2023-02-23T17:45:08.460Z,9.00
2023-02-23T17:47:36.676Z,8.90
2023-02-23T17:50:03.327Z,8.80
2023-02-23T17:52:29.929Z,8.90
2023-02-23T17:54:56.942Z,8.90
2023-02-23T17:57:25.320Z,8.80
2023-02-23T17:59:52.359Z,8.80
2023-02-23T18:02:21.045Z,8.80
2023-02-23T18:04:48.902Z,8.70
2023-02-23T18:07:16.244Z,8.70
2023-02-23T18:09:43.032Z,8.70
2023-02-23T18:12:10.006Z,8.70
2023-02-23T18:14:37.735Z,8.70
2023-02-23T18:17:04.871Z,8.70
2023-02-23T18:19:31.980Z,8.70
2023-02-23T18:21:58.590Z,8.70
2023-02-23T18:24:27.100Z,8.70
2023-02-23T18:27:00.802Z,8.80
2023-02-23T18:29:32.391Z,8.80
2023-02-23T18:31:59.747Z,8.80
2023-02-23T18:34:28.710Z,8.90
2023-02-23T18:37:02.269Z,8.80
2023-02-23T18:39:32.545Z,8.90
2023-02-23T18:42:00.716Z,8.80
2023-02-23T18:44:27.673Z,8.90
2023-02-23T18:46:54.799Z,8.90
2023-02-23T18:49:24.031Z,8.80
2023-02-23T18:51:51.317Z,8.80
2023-02-23T18:54:24.569Z,8.80
2023-02-23T18:56:52.194Z,8.80
2023-02-23T18:59:18.835Z,8.70
2023-02-23T19:01:47.793Z,8.80
2023-02-23T19:04:14.589Z,8.70
2023-02-23T19:06:43.868Z,8.70
2023-02-23T19:09:14.204Z,8.70
2023-02-23T19:11:42.389Z,8.80
2023-02-23T19:14:12.841Z,8.80
2023-02-23T19:16:40.973Z,8.80
2023-02-23T19:19:08.623Z,8.80
2023-02-23T19:21:36.345Z,8.90
2023-02-23T19:24:04.235Z,8.90
2023-02-23T19:26:33.521Z,9.00
2023-02-23T19:29:00.703Z,9.00
2023-02-23T19:31:28.493Z,9.00
2023-02-23T19:33:56.919Z,9.00
2023-02-23T19:36:30.536Z,9.00
2023-02-23T19:39:06.049Z,8.90
2023-02-23T19:41:33.980Z,8.90
2023-02-23T19:44:00.995Z,9.00
2023-02-23T19:46:28.327Z,8.90
2023-02-23T19:48:55.332Z,8.90
2023-02-23T19:51:23.190Z,8.80
2023-02-23T19:53:52.502Z,8.80
2023-02-23T19:56:19.081Z,8.80
2023-02-23T19:58:46.781Z,8.80
2023-02-23T20:01:19.745Z,8.70
2023-02-23T20:03:55.040Z,8.60
2023-02-23T20:06:24.828Z,8.70
2023-02-23T20:08:52.580Z,8.60
2023-02-23T20:11:20.126Z,8.60
2023-02-23T20:13:46.947Z,8.70
2023-02-23T20:16:14.917Z,8.70
2023-02-23T20:18:42.180Z,8.60
2023-02-23T20:21:10.240Z,8.50
2023-02-23T20:23:37.070Z,8.60
2023-02-23T20:26:09.131Z,8.60
2023-02-23T20:28:35.758Z,8.50
2023-02-23T20:31:02.727Z,8.50
2023-02-23T20:33:30.811Z,8.40
2023-02-23T20:35:57.930Z,8.50
2023-02-23T20:38:24.709Z,8.60
2023-02-23T20:40:51.552Z,8.60
2023-02-23T20:43:18.768Z,8.60
2023-02-23T20:45:45.443Z,8.50
2023-02-23T20:48:12.142Z,8.30
2023-02-23T20:50:39.134Z,8.20
2023-02-23T20:53:05.844Z,8.10
2023-02-23T20:55:32.777Z,7.90
2023-02-23T20:57:59.424Z,7.90
2023-02-23T21:00:29.347Z,7.90
2023-02-23T21:02:55.954Z,7.90
2023-02-23T21:05:28.746Z,7.90
2023-02-23T21:08:00.553Z,7.90
2023-02-23T21:10:33.710Z,7.90
2023-02-23T21:13:01.016Z,7.90
2023-02-23T21:15:29.105Z,7.90
2023-02-23T21:17:56.815Z,7.90
2023-02-23T21:20:24.896Z,7.90
2023-02-23T21:22:51.763Z,7.90
2023-02-23T21:25:20.484Z,7.80
2023-02-23T21:27:48.679Z,7.70
2023-02-23T21:30:20.733Z,7.70
2023-02-23T21:32:49.372Z,7.70
2023-02-23T21:35:16.839Z,7.80
2023-02-23T21:37:43.660Z,7.90
2023-02-23T21:40:18.844Z,7.80
2023-02-23T21:42:45.441Z,7.80
2023-02-23T21:45:13.596Z,8.00
2023-02-23T21:47:43.003Z,8.30
2023-02-23T21:50:13.527Z,8.20
2023-02-23T21:52:45.091Z,8.30
2023-02-23T21:55:21.303Z,8.10
2023-02-23T21:57:48.581Z,8.10
2023-02-23T22:00:21.477Z,7.90
2023-02-23T22:02:48.724Z,7.90
2023-02-23T22:05:17.594Z,7.90
2023-02-23T22:07:49.374Z,7.90
2023-02-23T22:10:17.784Z,7.70
2023-02-23T22:12:44.467Z,7.70
2023-02-23T22:15:11.521Z,7.80
2023-02-23T22:17:38.596Z,7.60
2023-02-23T22:20:07.166Z,7.50
2023-02-23T22:22:35.938Z,7.60
2023-02-23T22:25:07.647Z,7.50
2023-02-23T22:27:34.422Z,7.40
2023-02-23T22:30:01.711Z,7.40
2023-02-23T22:32:32.478Z,7.40
2023-02-23T22:35:00.415Z,7.50
2023-02-23T22:37:31.484Z,7.50
2023-02-23T22:40:01.463Z,7.50
2023-02-23T22:42:35.255Z,7.50
2023-02-23T22:45:01.926Z,7.50
2023-02-23T22:47:28.511Z,7.50
2023-02-23T22:49:55.263Z,7.40
2023-02-23T22:52:21.880Z,7.30
2023-02-23T22:54:50.642Z,7.30
2023-02-23T22:57:17.267Z,7.30
2023-02-23T22:59:54.549Z,7.30
2023-02-23T23:02:22.641Z,7.30
2023-02-23T23:04:49.235Z,7.30
2023-02-23T23:07:15.940Z,7.20
2023-02-23T23:09:42.555Z,7.20
2023-02-23T23:12:11.753Z,7.10
2023-02-23T23:14:38.672Z,7.10
2023-02-23T23:17:05.349Z,7.10
2023-02-23T23:19:38.708Z,7.00
2023-02-23T23:22:05.643Z,6.90
2023-02-23T23:24:32.456Z,6.90
2023-02-23T23:27:08.035Z,6.90
2023-02-23T23:29:34.627Z,6.80
2023-02-23T23:32:03.113Z,6.80
2023-02-23T23:34:33.281Z,6.90
2023-02-23T23:37:01.215Z,7.00
2023-02-23T23:39:27.998Z,7.10
2023-02-23T23:41:54.650Z,7.20
2023-02-23T23:44:24.313Z,7.20
2023-02-23T23:46:51.292Z,7.00
2023-02-23T23:49:20.678Z,6.90
2023-02-23T23:51:52.484Z,7.00
2023-02-23T23:54:22.128Z,7.00
2023-02-23T23:56:49.492Z,6.90
2023-02-23T23:59:22.691Z,6.90
